createdAt,value
2022-11-25T00:01:41.591Z,99473.44
2022-11-25T00:04:09.581Z,99476.78
2022-11-25T00:06:37.639Z,99469.75
2022-11-25T00:09:07.727Z,99473.81
2022-11-25T00:11:36.113Z,99467.63
2022-11-25T00:14:04.079Z,99472.13
2022-11-25T00:16:32.113Z,99478.13
2022-11-25T00:19:00.139Z,99469.06
2022-11-25T00:21:29.179Z,99463.78
2022-11-25T00:23:57.958Z,99471.78
2022-11-25T00:26:27.805Z,99474.44
2022-11-25T00:28:57.679Z,99470.13
2022-11-25T00:31:26.634Z,99461.03
2022-11-25T00:33:54.652Z,99475.00
2022-11-25T00:36:23.997Z,99472.13
2022-11-25T00:38:54.290Z,99468.44
2022-11-25T00:41:39.447Z,99468.78
2022-11-25T00:44:27.285Z,99477.13
2022-11-25T00:46:55.250Z,99482.16
2022-11-25T00:49:23.323Z,99488.69
2022-11-25T00:51:51.378Z,99489.19
2022-11-25T00:54:19.519Z,99495.16
2022-11-25T00:56:47.572Z,99490.13
2022-11-25T00:59:16.960Z,99488.47
2022-11-25T01:01:45.027Z,99495.66
2022-11-25T01:04:13.092Z,99503.03
2022-11-25T01:06:41.012Z,99501.00
2022-11-25T01:09:09.085Z,99495.78
2022-11-25T01:11:37.063Z,99504.31
2022-11-25T01:14:05.006Z,99503.88
2022-11-25T01:16:34.361Z,99497.78
2022-11-25T01:19:02.473Z,99501.00
2022-11-25T01:21:31.458Z,99499.81
2022-11-25T01:24:00.340Z,99497.19
2022-11-25T01:26:28.536Z,99501.81
2022-11-25T01:28:57.292Z,99499.69
2022-11-25T01:31:26.361Z,99513.44
2022-11-25T01:33:56.883Z,99502.25
2022-11-25T01:36:24.899Z,99508.44
2022-11-25T01:38:53.582Z,99499.56
2022-11-25T01:41:22.252Z,99506.28
2022-11-25T01:44:11.074Z,99514.28
2022-11-25T01:46:56.288Z,99514.97
2022-11-25T01:49:30.043Z,99497.56
2022-11-25T01:52:00.427Z,99503.59
2022-11-25T01:54:29.525Z,99493.63
2022-11-25T01:56:59.750Z,99512.97
2022-11-25T01:59:27.807Z,99523.88
2022-11-25T02:01:55.852Z,99519.81
2022-11-25T02:04:24.183Z,99521.31
2022-11-25T02:06:54.993Z,99541.75
2022-11-25T02:09:23.185Z,99539.13
2022-11-25T02:11:51.178Z,99542.09
2022-11-25T02:14:19.345Z,99538.09
2022-11-25T02:16:47.364Z,99532.06
2022-11-25T02:19:18.111Z,99534.72
2022-11-25T02:21:48.580Z,99534.41
2022-11-25T02:24:19.821Z,99535.75
2022-11-25T02:26:49.215Z,99538.50
2022-11-25T02:29:17.181Z,99542.66
2022-11-25T02:31:45.261Z,99545.53
2022-11-25T02:34:13.254Z,99531.16
2022-11-25T02:36:41.198Z,99540.63
2022-11-25T02:39:09.163Z,99542.50
2022-11-25T02:41:38.663Z,99538.00
2022-11-25T02:44:07.971Z,99541.16
2022-11-25T02:46:35.954Z,99540.63
2022-11-25T02:49:11.393Z,99541.84
2022-11-25T02:51:39.984Z,99546.88
2022-11-25T02:54:07.996Z,99541.00
2022-11-25T02:56:36.325Z,99542.66
2022-11-25T02:59:04.488Z,99546.34
2022-11-25T03:01:35.364Z,99542.50
2022-11-25T03:04:03.568Z,99548.53
2022-11-25T03:06:31.550Z,99548.03
2022-11-25T03:08:59.543Z,99542.50
2022-11-25T03:11:47.639Z,99549.91
2022-11-25T03:14:15.550Z,99552.59
2022-11-25T03:16:44.993Z,99556.13
2022-11-25T03:19:13.001Z,99550.09
2022-11-25T03:21:40.917Z,99553.22
2022-11-25T03:24:08.980Z,99564.31
2022-11-25T03:26:36.957Z,99557.97
2022-11-25T03:29:04.934Z,99559.13
2022-11-25T03:31:32.915Z,99559.78
2022-11-25T03:34:02.257Z,99555.28
2022-11-25T03:36:30.209Z,99558.63
2022-11-25T03:38:58.194Z,99563.69
2022-11-25T03:41:26.162Z,99556.97
2022-11-25T03:43:54.155Z,99564.34
2022-11-25T03:46:22.166Z,99556.31
2022-11-25T03:48:50.231Z,99559.69
2022-11-25T03:51:19.562Z,99557.34
2022-11-25T03:53:47.529Z,99554.66
2022-11-25T03:56:15.613Z,99549.31
2022-11-25T03:58:43.562Z,99553.69
2022-11-25T04:01:11.760Z,99557.38
2022-11-25T04:03:39.780Z,99557.72
2022-11-25T04:06:07.838Z,99565.41
2022-11-25T04:08:37.208Z,99567.59
2022-11-25T04:11:05.139Z,99574.44
2022-11-25T04:13:32.114Z,99566.94
2022-11-25T04:16:00.095Z,99581.81
2022-11-25T04:18:28.042Z,99576.81
2022-11-25T04:20:56.016Z,99581.66
2022-11-25T04:23:23.966Z,99587.34
2022-11-25T04:25:53.343Z,99584.16
2022-11-25T04:28:21.332Z,99587.19
2022-11-25T04:30:49.288Z,99592.53
2022-11-25T04:33:17.372Z,99598.22
2022-11-25T04:35:45.476Z,99594.16
2022-11-25T04:38:13.488Z,99597.72
2022-11-25T04:40:41.547Z,99591.34
2022-11-25T04:43:10.976Z,99601.06
2022-11-25T04:46:06.191Z,99599.53
2022-11-25T04:48:26.880Z,99606.94
2022-11-25T04:50:54.844Z,99605.59
2022-11-25T04:53:22.787Z,99609.59
2022-11-25T04:55:50.754Z,99601.22
2022-11-25T04:58:40.078Z,99604.91
2022-11-25T05:01:07.038Z,99613.94
2022-11-25T05:03:34.993Z,99611.94
2022-11-25T05:06:07.219Z,99613.59
2022-11-25T05:08:35.214Z,99616.63
2022-11-25T05:11:03.243Z,99618.28
2022-11-25T05:13:32.676Z,99626.38
2022-11-25T05:16:01.146Z,99638.56
2022-11-25T05:18:29.182Z,99640.94
2022-11-25T05:20:57.185Z,99637.72
2022-11-25T05:23:25.238Z,99642.38
2022-11-25T05:25:53.186Z,99646.28
2022-11-25T05:28:21.309Z,99652.63
2022-11-25T05:30:50.725Z,99654.47
2022-11-25T05:33:18.722Z,99651.94
2022-11-25T05:35:46.700Z,99659.34
2022-11-25T05:38:14.686Z,99651.81
2022-11-25T05:40:42.574Z,99659.69
2022-11-25T05:43:10.544Z,99665.03
2022-11-25T05:45:39.740Z,99662.66
2022-11-25T05:48:09.258Z,99672.38
2022-11-25T05:50:37.962Z,99680.22
2022-11-25T05:53:05.952Z,99682.91
2022-11-25T05:55:33.969Z,99687.78
2022-11-25T05:58:03.168Z,99689.94
2022-11-25T06:00:31.166Z,99690.28
2022-11-25T06:02:59.306Z,99702.34
2022-11-25T06:05:28.694Z,99703.00
2022-11-25T06:07:56.701Z,99698.66
2022-11-25T06:10:24.651Z,99705.03
2022-11-25T06:12:53.748Z,99707.38
2022-11-25T06:15:21.906Z,99722.63
2022-11-25T06:17:49.852Z,99711.72
2022-11-25T06:20:18.068Z,99717.44
2022-11-25T06:22:47.531Z,99730.78
2022-11-25T06:25:15.544Z,99719.78
2022-11-25T06:28:11.259Z,99725.81
2022-11-25T06:30:31.415Z,99728.94
2022-11-25T06:32:59.376Z,99731.47
2022-11-25T06:35:27.343Z,99734.47
2022-11-25T06:37:56.692Z,99738.81
2022-11-25T06:40:24.714Z,99737.97
2022-11-25T06:42:52.800Z,99745.31
2022-11-25T06:45:20.795Z,99748.19
2022-11-25T06:47:48.808Z,99746.38
2022-11-25T06:50:16.968Z,99755.56
2022-11-25T06:52:44.933Z,99760.41
2022-11-25T06:55:14.367Z,99762.91
2022-11-25T06:57:42.324Z,99754.41
2022-11-25T07:00:10.861Z,99758.41
2022-11-25T07:02:44.066Z,99768.63
2022-11-25T07:05:13.413Z,99776.00
2022-11-25T07:07:41.382Z,99770.63
2022-11-25T07:10:10.332Z,99774.31
2022-11-25T07:12:39.924Z,99772.50
2022-11-25T07:15:08.493Z,99782.38
2022-11-25T07:17:36.565Z,99782.06
2022-11-25T07:20:04.905Z,99775.03
2022-11-25T07:22:32.839Z,99786.09
2022-11-25T07:25:00.867Z,99786.09
2022-11-25T07:27:28.841Z,99782.72
2022-11-25T07:30:41.069Z,99795.13
2022-11-25T07:32:46.135Z,99792.41
2022-11-25T07:35:14.202Z,99803.09
2022-11-25T07:37:42.296Z,99804.69
2022-11-25T07:40:11.006Z,99809.75
2022-11-25T07:42:38.951Z,99812.38
2022-11-25T07:45:09.358Z,99811.06
2022-11-25T07:47:37.339Z,99819.34
2022-11-25T07:50:05.817Z,99825.22
2022-11-25T07:52:33.868Z,99828.41
2022-11-25T07:55:01.818Z,99841.31
2022-11-25T07:57:30.240Z,99819.03
2022-11-25T07:59:58.173Z,99835.44
2022-11-25T08:02:27.572Z,99835.97
2022-11-25T08:04:55.626Z,99840.47
2022-11-25T08:07:23.671Z,99848.00
2022-11-25T08:09:52.588Z,99847.84
2022-11-25T08:12:20.580Z,99846.00
2022-11-25T08:14:48.648Z,99845.94
2022-11-25T08:17:16.570Z,99847.94
2022-11-25T08:19:45.915Z,99853.66
2022-11-25T08:22:14.005Z,99852.88
2022-11-25T08:24:42.176Z,99850.72
2022-11-25T08:27:10.117Z,99852.88
2022-11-25T08:29:38.167Z,99862.75
2022-11-25T08:32:11.771Z,99859.09
2022-11-25T08:34:40.161Z,99849.97
2022-11-25T08:37:09.675Z,99861.16
2022-11-25T08:39:52.444Z,99860.88
2022-11-25T08:42:21.031Z,99863.34
2022-11-25T08:44:53.102Z,99854.31
2022-11-25T08:47:21.075Z,99870.78
2022-11-25T08:49:51.843Z,99863.38
2022-11-25T08:52:21.220Z,99871.88
2022-11-25T08:54:49.186Z,99872.69
2022-11-25T08:57:17.247Z,99880.78
2022-11-25T08:59:45.178Z,99876.88
2022-11-25T09:02:14.412Z,99867.72
2022-11-25T09:04:42.468Z,99880.06
2022-11-25T09:07:10.546Z,99866.69
2022-11-25T09:09:40.176Z,99856.81
2022-11-25T09:12:08.359Z,99882.56
2022-11-25T09:14:36.392Z,99885.78
2022-11-25T09:17:05.132Z,99877.81
2022-11-25T09:19:33.334Z,99897.56
2022-11-25T09:22:01.380Z,99880.22
2022-11-25T09:24:29.367Z,99890.09
2022-11-25T09:26:58.671Z,99892.28
2022-11-25T09:29:27.844Z,99879.69
2022-11-25T09:31:55.838Z,99883.97
2022-11-25T09:34:23.848Z,99896.88
2022-11-25T09:36:51.828Z,99888.03
2022-11-25T09:39:19.814Z,99881.91
2022-11-25T09:42:16.199Z,99875.63
2022-11-25T09:45:07.196Z,99881.38
2022-11-25T09:47:42.316Z,99874.06
2022-11-25T09:50:17.616Z,99867.25
2022-11-25T09:52:49.697Z,99880.81
2022-11-25T09:55:18.833Z,99876.53
2022-11-25T09:57:59.688Z,99880.13
2022-11-25T10:00:39.178Z,99862.28
2022-11-25T10:03:08.588Z,99889.31
2022-11-25T10:05:40.595Z,99863.84
2022-11-25T10:08:11.290Z,99877.94
2022-11-25T10:10:42.690Z,99887.81
2022-11-25T10:13:15.491Z,99889.84
2022-11-25T10:15:45.449Z,99886.75
2022-11-25T10:18:16.626Z,99888.66
2022-11-25T10:20:44.725Z,99892.75
2022-11-25T10:23:13.942Z,99897.97
2022-11-25T10:25:46.240Z,99889.88
2022-11-25T10:28:18.989Z,99889.81
2022-11-25T10:30:51.017Z,99894.34
2022-11-25T10:33:20.951Z,99871.88
2022-11-25T10:35:50.832Z,99886.75
2022-11-25T10:38:21.791Z,99880.91
2022-11-25T10:40:51.073Z,99874.78
2022-11-25T10:43:20.863Z,99892.59
2022-11-25T10:45:50.623Z,99895.16
2022-11-25T10:48:24.005Z,99887.06
2022-11-25T10:51:03.151Z,99896.50
2022-11-25T10:53:31.486Z,99883.81
2022-11-25T10:56:02.263Z,99892.50
2022-11-25T10:58:33.138Z,99893.81
2022-11-25T11:01:06.572Z,99897.41
2022-11-25T11:03:34.666Z,99901.97
2022-11-25T11:06:02.643Z,99885.56
2022-11-25T11:08:37.676Z,99899.19
2022-11-25T11:11:26.431Z,99900.25
2022-11-25T11:14:01.778Z,99898.84
2022-11-25T11:16:31.809Z,99898.81
2022-11-25T11:19:00.019Z,99896.56
2022-11-25T11:21:31.476Z,99892.31
2022-11-25T11:23:59.957Z,99894.25
2022-11-25T11:26:28.902Z,99889.88
2022-11-25T11:29:11.127Z,99890.44
2022-11-25T11:31:45.296Z,99894.53
2022-11-25T11:34:28.826Z,99896.56
2022-11-25T11:37:07.990Z,99896.88
2022-11-25T11:39:52.856Z,99883.56
2022-11-25T11:42:23.882Z,99896.13
2022-11-25T11:45:01.147Z,99891.69
2022-11-25T11:47:31.932Z,99888.31
2022-11-25T11:50:18.534Z,99878.94
2022-11-25T11:52:51.487Z,99891.31
2022-11-25T11:55:29.217Z,99888.25
2022-11-25T11:58:01.322Z,99894.06
2022-11-25T12:00:33.281Z,99891.09
2022-11-25T12:03:02.550Z,99885.25
2022-11-25T12:05:31.454Z,99881.16
2022-11-25T12:08:04.153Z,99886.41
2022-11-25T12:10:33.940Z,99878.69
2022-11-25T12:13:09.028Z,99889.16
2022-11-25T12:15:45.038Z,99896.78
2022-11-25T12:18:20.018Z,99887.66
2022-11-25T12:20:50.590Z,99897.69
2022-11-25T12:23:21.066Z,99893.97
2022-11-25T12:25:49.284Z,99896.63
2022-11-25T12:28:18.899Z,99894.75
2022-11-25T12:30:58.305Z,99887.88
2022-11-25T12:33:31.123Z,99901.38
2022-11-25T12:36:01.144Z,99891.78
2022-11-25T12:38:35.201Z,99899.94
2022-11-25T12:41:06.064Z,99905.41
2022-11-25T12:43:38.009Z,99900.31
2022-11-25T12:46:14.857Z,99898.81
2022-11-25T12:48:43.727Z,99884.81
2022-11-25T12:51:18.063Z,99902.22
2022-11-25T12:53:48.390Z,99908.34
2022-11-25T12:56:18.364Z,99910.41
2022-11-25T12:58:54.304Z,99878.63
2022-11-25T13:01:45.535Z,99915.72
2022-11-25T13:04:58.048Z,99917.94
2022-11-25T13:07:32.300Z,99924.16
2022-11-25T13:10:14.379Z,99925.16
2022-11-25T13:12:47.505Z,99918.63
2022-11-25T13:15:28.250Z,99928.69
2022-11-25T13:18:00.575Z,99929.38
2022-11-25T13:20:37.066Z,99926.00
2022-11-25T13:23:09.010Z,99917.31
2022-11-25T13:25:37.734Z,99929.53
2022-11-25T13:28:06.162Z,99937.47
2022-11-25T13:30:38.555Z,99927.06
2022-11-25T13:33:38.922Z,99934.63
2022-11-25T13:36:16.555Z,99932.75
2022-11-25T13:39:01.095Z,99942.81
2022-11-25T13:41:49.949Z,99945.81
2022-11-25T13:44:23.208Z,99946.47
2022-11-25T13:46:52.675Z,99944.47
2022-11-25T13:49:26.029Z,99946.16
2022-11-25T13:51:55.914Z,99943.13
2022-11-25T13:54:26.953Z,99946.50
2022-11-25T13:57:28.032Z,99948.19
2022-11-25T13:59:57.949Z,99937.44
2022-11-25T14:02:42.071Z,99952.69
2022-11-25T14:05:57.517Z,99949.53
2022-11-25T14:08:33.642Z,99943.47
2022-11-25T14:11:14.509Z,99956.25
2022-11-25T14:13:59.826Z,99957.91
2022-11-25T14:16:40.557Z,99965.94
2022-11-25T14:19:54.839Z,99970.44
2022-11-25T14:22:41.416Z,99970.44
2022-11-25T14:25:22.354Z,99972.38
2022-11-25T14:27:52.998Z,99975.72
2022-11-25T14:30:21.075Z,99973.22
2022-11-25T14:32:53.412Z,99962.00
2022-11-25T14:35:22.974Z,99973.22
2022-11-25T14:37:51.812Z,99978.47
2022-11-25T14:40:22.844Z,99971.06
2022-11-25T14:42:53.124Z,99976.16
2022-11-25T14:45:22.406Z,99983.19
2022-11-25T14:47:50.394Z,99985.56
2022-11-25T14:50:34.203Z,99982.19
2022-11-25T14:53:07.217Z,99979.00
2022-11-25T14:55:36.590Z,99995.13
2022-11-25T14:58:04.509Z,99990.59
2022-11-25T15:00:32.489Z,99994.28
2022-11-25T15:03:01.129Z,99987.22
2022-11-25T15:05:33.053Z,99993.94
2022-11-25T15:08:02.490Z,99996.59
2022-11-25T15:10:41.029Z,100004.34
2022-11-25T15:13:14.503Z,99999.66
2022-11-25T15:15:45.763Z,100005.84
2022-11-25T15:18:17.473Z,99995.59
2022-11-25T15:20:47.929Z,100008.00
2022-11-25T15:23:16.216Z,99999.63
2022-11-25T15:25:52.178Z,100006.31
2022-11-25T15:28:20.147Z,100006.16
2022-11-25T15:30:57.382Z,100015.53
2022-11-25T15:33:25.640Z,100020.41
2022-11-25T15:35:54.017Z,100023.41
2022-11-25T15:38:36.209Z,100019.34
2022-11-25T15:41:05.685Z,100018.00
2022-11-25T15:43:33.618Z,99985.09
2022-11-25T15:46:02.584Z,100026.03
2022-11-25T15:48:32.027Z,100021.66
2022-11-25T15:51:02.490Z,100025.63
2022-11-25T15:53:33.360Z,100028.94
2022-11-25T15:56:01.613Z,100028.72
2022-11-25T15:58:30.925Z,100035.88
2022-11-25T16:01:05.802Z,100032.78
2022-11-25T16:03:34.086Z,100042.81
2022-11-25T16:06:02.354Z,100044.06
2022-11-25T16:08:35.139Z,100044.59
2022-11-25T16:11:15.402Z,100050.41
2022-11-25T16:13:44.737Z,100045.84
2022-11-25T16:16:17.738Z,100053.34
2022-11-25T16:18:59.670Z,100058.34
2022-11-25T16:21:30.590Z,100057.31
2022-11-25T16:24:00.297Z,100060.56
2022-11-25T16:26:29.521Z,100069.25
2022-11-25T16:29:00.123Z,100070.84
2022-11-25T16:31:28.725Z,100074.47
2022-11-25T16:33:57.049Z,100076.81
2022-11-25T16:36:25.060Z,100080.03
2022-11-25T16:38:53.367Z,100081.03
2022-11-25T16:41:22.113Z,100082.56
2022-11-25T16:43:50.122Z,100076.06
2022-11-25T16:46:20.359Z,100086.22
2022-11-25T16:48:48.364Z,100084.47
2022-11-25T16:51:17.073Z,100089.53
2022-11-25T16:53:45.115Z,100090.88
2022-11-25T16:56:15.580Z,100086.22
2022-11-25T16:58:43.958Z,100089.03
2022-11-25T17:01:14.078Z,100090.44
2022-11-25T17:03:43.575Z,100092.88
2022-11-25T17:06:20.036Z,100089.88
2022-11-25T17:08:49.733Z,100089.88
2022-11-25T17:11:19.456Z,100085.59
2022-11-25T17:13:50.482Z,100081.09
2022-11-25T17:16:19.494Z,100088.56
2022-11-25T17:18:49.047Z,100088.69
2022-11-25T17:21:17.276Z,100089.13
2022-11-25T17:23:45.497Z,100088.28
2022-11-25T17:26:17.748Z,100093.19
2022-11-25T17:28:46.223Z,100098.84
2022-11-25T17:31:14.226Z,100102.94
2022-11-25T17:33:46.136Z,100100.88
2022-11-25T17:36:15.499Z,100098.72
2022-11-25T17:38:43.445Z,100106.44
2022-11-25T17:41:13.296Z,100113.94
2022-11-25T17:43:41.277Z,100101.13
2022-11-25T17:46:11.554Z,100094.84
2022-11-25T17:48:42.274Z,100103.88
2022-11-25T17:51:10.415Z,100114.56
2022-11-25T17:53:39.978Z,100113.47
2022-11-25T17:56:27.012Z,100118.13
2022-11-25T17:58:54.964Z,100121.09
2022-11-25T18:01:22.974Z,100120.41
2022-11-25T18:03:53.069Z,100123.34
2022-11-25T18:06:21.067Z,100129.31
2022-11-25T18:08:50.626Z,100124.53
2022-11-25T18:11:19.905Z,100128.59
2022-11-25T18:13:47.865Z,100131.28
2022-11-25T18:16:16.096Z,100136.63
2022-11-25T18:18:44.115Z,100135.81
2022-11-25T18:21:12.703Z,100131.88
2022-11-25T18:23:40.691Z,100134.09
2022-11-25T18:26:11.030Z,100131.56
2022-11-25T18:28:38.946Z,100140.56
2022-11-25T18:31:07.337Z,100143.81
2022-11-25T18:33:35.755Z,100144.94
2022-11-25T18:36:03.806Z,100134.81
2022-11-25T18:38:31.780Z,100143.00
2022-11-25T18:40:59.778Z,100142.03
2022-11-25T18:43:29.147Z,100150.19
2022-11-25T18:45:57.329Z,100149.34
2022-11-25T18:48:26.421Z,100149.91
2022-11-25T18:50:56.092Z,100150.91
2022-11-25T18:53:24.247Z,100155.25
2022-11-25T18:55:52.266Z,100158.06
2022-11-25T18:58:20.829Z,100141.50
2022-11-25T19:00:50.845Z,100158.34
2022-11-25T19:03:20.075Z,100168.50
2022-11-25T19:05:48.190Z,100167.50
2022-11-25T19:08:16.155Z,100181.84
2022-11-25T19:10:44.685Z,100183.09
2022-11-25T19:13:15.228Z,100185.06
2022-11-25T19:15:44.047Z,100191.53
2022-11-25T19:18:16.117Z,100172.03
2022-11-25T19:20:44.082Z,100195.75
2022-11-25T19:23:18.702Z,100190.41
2022-11-25T19:25:46.649Z,100194.91
2022-11-25T19:28:14.807Z,100189.44
2022-11-25T19:30:42.908Z,100200.25
2022-11-25T19:33:14.612Z,100203.34
2022-11-25T19:35:42.634Z,100198.72
2022-11-25T19:38:21.327Z,100203.94
2022-11-25T19:40:49.444Z,100209.28
2022-11-25T19:43:17.437Z,100204.78
2022-11-25T19:45:45.477Z,100214.88
2022-11-25T19:48:16.703Z,100193.09
2022-11-25T19:50:45.134Z,100207.00
2022-11-25T19:53:16.753Z,100213.19
2022-11-25T19:55:45.199Z,100217.94
2022-11-25T19:58:13.172Z,100212.44
2022-11-25T20:00:41.276Z,100215.97
2022-11-25T20:03:12.694Z,100211.44
2022-11-25T20:05:42.068Z,100213.72
2022-11-25T20:08:12.198Z,100214.13
2022-11-25T20:10:40.132Z,100217.41
2022-11-25T20:13:08.109Z,100214.28
2022-11-25T20:15:36.278Z,100219.09
2022-11-25T20:18:04.744Z,100216.84
2022-11-25T20:20:33.600Z,100219.78
2022-11-25T20:23:04.165Z,100223.44
2022-11-25T20:25:32.160Z,100227.50
2022-11-25T20:28:00.158Z,100225.56
2022-11-25T20:30:29.385Z,100234.09
2022-11-25T20:32:57.386Z,100233.13
2022-11-25T20:35:25.378Z,100233.94
2022-11-25T20:37:57.990Z,100233.38
2022-11-25T20:40:32.979Z,100238.44
2022-11-25T20:43:00.997Z,100237.31
2022-11-25T20:45:28.962Z,100237.88
2022-11-25T20:47:57.052Z,100246.56
2022-11-25T20:50:25.016Z,100244.63
2022-11-25T20:52:52.982Z,100237.91
2022-11-25T20:55:22.262Z,100245.78
2022-11-25T20:57:51.894Z,100243.13
2022-11-25T21:00:21.048Z,100246.22
2022-11-25T21:02:49.112Z,100252.81
2022-11-25T21:05:17.965Z,100241.56
2022-11-25T21:07:46.093Z,100257.03
2022-11-25T21:10:23.069Z,100262.09
2022-11-25T21:12:52.536Z,100251.69
2022-11-25T21:15:21.720Z,100256.31
2022-11-25T21:17:49.723Z,100261.97
2022-11-25T21:20:18.173Z,100263.47
2022-11-25T21:22:47.272Z,100263.22
2022-11-25T21:25:16.990Z,100243.81
2022-11-25T21:27:45.189Z,100261.53
2022-11-25T21:30:21.351Z,100269.13
2022-11-25T21:32:49.341Z,100264.63
2022-11-25T21:35:17.347Z,100266.19
2022-11-25T21:37:45.345Z,100269.25
2022-11-25T21:40:32.376Z,100266.00
2022-11-25T21:43:00.376Z,100281.75
2022-11-25T21:45:29.727Z,100275.28
2022-11-25T21:47:57.761Z,100287.06
2022-11-25T21:50:29.287Z,100281.41
2022-11-25T21:52:57.367Z,100283.63
2022-11-25T21:55:25.360Z,100285.63
2022-11-25T21:57:53.267Z,100288.09
2022-11-25T22:00:23.894Z,100286.97
2022-11-25T22:02:53.405Z,100283.16
2022-11-25T22:05:22.255Z,100296.75
2022-11-25T22:07:50.328Z,100291.13
2022-11-25T22:10:18.675Z,100298.38
2022-11-25T22:12:47.284Z,100300.59
2022-11-25T22:15:16.960Z,100280.59
2022-11-25T22:17:45.118Z,100309.00
2022-11-25T22:20:24.901Z,100294.63
2022-11-25T22:22:52.814Z,100305.78
2022-11-25T22:25:20.774Z,100310.88
2022-11-25T22:27:48.781Z,100313.00
2022-11-25T22:30:17.696Z,100308.03
2022-11-25T22:32:45.853Z,100317.28
2022-11-25T22:35:18.306Z,100322.88
2022-11-25T22:37:53.501Z,100311.63
2022-11-25T22:40:22.875Z,100313.00
2022-11-25T22:42:51.452Z,100315.47
2022-11-25T22:45:22.322Z,100312.34
2022-11-25T22:47:50.330Z,100310.41
2022-11-25T22:50:21.811Z,100310.41
2022-11-25T22:52:51.198Z,100320.50
2022-11-25T22:55:20.926Z,100314.03
2022-11-25T22:57:49.098Z,100320.22
2022-11-25T23:00:21.759Z,100323.91
2022-11-25T23:02:49.799Z,100328.88
2022-11-25T23:05:20.056Z,100334.13
2022-11-25T23:07:48.471Z,100335.78
2022-11-25T23:10:19.867Z,100335.88
2022-11-25T23:12:47.894Z,100330.19
2022-11-25T23:15:16.270Z,100330.09
2022-11-25T23:17:49.600Z,100308.47
2022-11-25T23:20:21.983Z,100334.84
2022-11-25T23:22:49.963Z,100335.00
2022-11-25T23:25:21.007Z,100336.59
2022-11-25T23:27:49.094Z,100343.47
2022-11-25T23:30:17.622Z,100338.56
2022-11-25T23:32:45.728Z,100345.03
2022-11-25T23:35:17.514Z,100350.22
2022-11-25T23:37:45.522Z,100345.59
2022-11-25T23:40:20.915Z,100347.13
2022-11-25T23:42:48.919Z,100341.63
2022-11-25T23:45:18.281Z,100352.91
2022-11-25T23:47:46.671Z,100357.41
2022-11-25T23:50:22.548Z,100351.22
2022-11-25T23:52:50.571Z,100365.97
2022-11-25T23:55:23.340Z,100365.56
2022-11-25T23:57:51.272Z,100368.66
